Time;durP1;ratioP1;P1;durP2;ratioP2;P2;SDS_P1;SDS_P2;PMS_P1;PMS_P2;Temp;Humidity;BMP_temperature;BMP_pressure;BME280_temperature;BME280_humidity;BME280_pressure;Samples;Min_cycle;Max_cycle;Signal;HPM_P1;HPM_P2
2022/05/12 00:00:52;;;;;;;4.35;3.22;;;17.10;99.90;;;;;;5066015;28;20096;-86
2022/05/12 00:03:17;;;;;;;6.57;3.53;;;17.10;99.90;;;;;;5067752;28;20377;-88
2022/05/12 00:05:44;;;;;;;5.05;3.60;;;17.00;99.90;;;;;;5068216;28;20127;-87
2022/05/12 00:08:10;;;;;;;8.60;3.28;;;17.00;99.90;;;;;;5066337;28;20083;-87
2022/05/12 00:10:37;;;;;;;6.80;3.38;;;17.00;99.90;;;;;;5063278;28;20032;-87
2022/05/12 00:13:03;;;;;;;9.65;3.90;;;17.00;99.90;;;;;;5062743;28;20040;-87
2022/05/12 00:15:31;;;;;;;4.97;3.30;;;16.90;99.90;;;;;;5069117;28;20051;-87
2022/05/12 00:17:58;;;;;;;9.23;3.60;;;16.90;99.90;;;;;;5062161;28;20359;-87
2022/05/12 00:20:24;;;;;;;5.20;3.45;;;16.90;99.90;;;;;;5065109;28;20017;-87
2022/05/12 00:22:52;;;;;;;4.43;3.28;;;16.80;99.90;;;;;;5064972;28;20068;-87
2022/05/12 00:25:21;;;;;;;6.30;3.40;;;16.80;99.90;;;;;;5067750;28;20027;-87
2022/05/12 00:27:47;;;;;;;5.22;3.30;;;16.80;99.90;;;;;;5046956;28;20066;-87
2022/05/12 00:30:13;;;;;;;6.50;3.50;;;16.70;99.90;;;;;;5068130;28;20781;-87
2022/05/12 00:32:45;;;;;;;5.22;3.63;;;16.70;99.90;;;;;;5064702;28;20036;-87
2022/05/12 00:35:13;;;;;;;5.90;3.95;;;16.70;99.90;;;;;;5052435;28;20024;-89
2022/05/12 00:37:39;;;;;;;5.35;3.15;;;16.70;99.90;;;;;;5070225;28;20078;-89
2022/05/12 00:40:06;;;;;;;7.75;3.72;;;16.70;99.90;;;;;;5044733;28;20020;-88
2022/05/12 00:42:34;;;;;;;4.07;3.28;;;16.70;99.90;;;;;;5074242;28;20021;-89
2022/05/12 00:44:59;;;;;;;6.90;3.20;;;16.70;99.90;;;;;;5074618;28;20036;-88
2022/05/12 00:47:25;;;;;;;6.90;3.30;;;16.80;99.90;;;;;;5044951;28;20033;-90
2022/05/12 00:49:52;;;;;;;5.63;3.60;;;16.80;99.90;;;;;;5073146;28;20025;-89
2022/05/12 00:52:27;;;;;;;6.15;3.13;;;16.80;99.90;;;;;;5067759;28;20391;-90
2022/05/12 00:55:03;;;;;;;5.25;3.45;;;16.90;99.90;;;;;;5071645;28;20043;-89
2022/05/12 00:57:35;;;;;;;6.90;3.55;;;16.80;99.90;;;;;;5046223;28;20029;-89
2022/05/12 01:00:01;;;;;;;7.13;3.53;;;16.90;99.90;;;;;;5073465;28;20017;-88
2022/05/12 01:02:28;;;;;;;4.68;3.22;;;16.80;99.90;;;;;;5046479;28;20033;-89
2022/05/12 01:04:56;;;;;;;7.43;3.75;;;16.80;99.90;;;;;;5058451;28;20454;-89
2022/05/12 01:07:22;;;;;;;4.13;3.22;;;16.80;99.90;;;;;;5057678;28;20542;-89
2022/05/12 01:09:48;;;;;;;5.55;3.30;;;16.80;99.90;;;;;;5049127;28;20115;-89
2022/05/12 01:12:13;;;;;;;7.97;3.55;;;16.80;99.90;;;;;;5049629;28;20473;-89
2022/05/12 01:14:39;;;;;;;6.60;3.70;;;16.80;99.90;;;;;;5066804;28;20461;-89
2022/05/12 01:17:06;;;;;;;5.65;3.65;;;16.70;99.90;;;;;;5052371;28;20048;-90
2022/05/12 01:19:37;;;;;;;6.43;3.40;;;16.70;99.90;;;;;;5064323;28;20112;-89
2022/05/12 01:22:09;;;;;;;5.80;3.55;;;16.70;99.90;;;;;;5064508;28;20116;-89
2022/05/12 01:24:43;;;;;;;6.13;3.58;;;16.70;99.90;;;;;;5051694;28;20035;-89
2022/05/12 01:27:19;;;;;;;5.78;4.00;;;16.70;99.90;;;;;;5053736;28;20048;-89
2022/05/12 01:29:53;;;;;;;5.60;3.55;;;16.60;99.90;;;;;;5060176;28;20071;-89
2022/05/12 01:32:22;;;;;;;5.75;3.30;;;16.60;99.90;;;;;;5053646;28;20385;-88
2022/05/12 01:34:47;;;;;;;7.65;3.38;;;16.60;99.90;;;;;;5044561;28;20060;-89
2022/05/12 01:37:13;;;;;;;5.30;3.47;;;16.60;99.90;;;;;;5050140;28;20031;-88
2022/05/12 01:39:39;;;;;;;4.15;3.20;;;16.60;99.90;;;;;;5048135;28;20781;-90
2022/05/12 01:42:07;;;;;;;7.88;3.30;;;16.60;99.90;;;;;;5061645;28;20359;-89
2022/05/12 01:44:34;;;;;;;4.05;3.65;;;16.60;99.90;;;;;;5060805;28;20035;-89
2022/05/12 01:46:59;;;;;;;4.80;3.20;;;16.60;99.90;;;;;;5051113;28;20024;-88
2022/05/12 01:49:26;;;;;;;6.20;3.10;;;16.60;99.90;;;;;;5049917;28;20123;-89
2022/05/12 01:51:53;;;;;;;7.03;3.00;;;16.70;99.90;;;;;;5063213;28;20159;-88
2022/05/12 01:54:19;;;;;;;4.32;2.92;;;16.70;99.90;;;;;;5045152;28;20207;-88
2022/05/12 01:56:45;;;;;;;4.72;2.97;;;16.70;99.90;;;;;;5044439;28;20797;-88
2022/05/12 01:59:10;;;;;;;5.20;3.20;;;16.70;99.90;;;;;;5070237;28;20024;-88
2022/05/12 02:01:36;;;;;;;5.85;3.17;;;16.80;99.90;;;;;;5057868;28;21010;-89
2022/05/12 02:04:02;;;;;;;4.85;3.17;;;16.80;99.90;;;;;;5065176;28;20465;-88
2022/05/12 02:06:28;;;;;;;6.50;3.10;;;16.90;99.90;;;;;;5065234;28;20462;-89
2022/05/12 02:08:53;;;;;;;5.13;3.35;;;16.90;99.90;;;;;;5061754;28;20044;-88
2022/05/12 02:11:19;;;;;;;5.00;2.95;;;17.00;99.90;;;;;;5044704;28;20029;-88
2022/05/12 02:13:45;;;;;;;4.43;3.38;;;17.00;99.90;;;;;;5064606;28;20089;-89
2022/05/12 02:16:10;;;;;;;5.90;3.33;;;17.00;99.90;;;;;;5048948;28;20529;-88
2022/05/12 02:18:36;;;;;;;7.03;3.50;;;17.00;99.90;;;;;;5060471;28;20025;-88
2022/05/12 02:21:01;;;;;;;6.45;2.97;;;17.00;99.90;;;;;;5065578;28;20052;-89
2022/05/12 02:23:27;;;;;;;8.23;3.33;;;17.00;99.90;;;;;;5067035;28;20515;-88
2022/05/12 02:25:52;;;;;;;4.07;3.20;;;17.00;99.90;;;;;;5062763;28;20068;-88
2022/05/12 02:28:18;;;;;;;5.22;3.10;;;17.10;99.90;;;;;;5065439;28;20021;-88
2022/05/12 02:30:44;;;;;;;5.57;3.20;;;17.10;99.90;;;;;;5065383;28;20334;-88
2022/05/12 02:33:10;;;;;;;7.90;3.58;;;17.10;99.90;;;;;;5065434;28;20102;-88
2022/05/12 02:35:37;;;;;;;5.57;3.42;;;17.10;99.90;;;;;;5061163;28;20108;-89
2022/05/12 02:38:04;;;;;;;9.60;3.42;;;17.10;99.90;;;;;;5044347;28;20024;-88
2022/05/12 02:40:30;;;;;;;4.28;3.00;;;17.10;99.90;;;;;;5066375;28;20293;-89
2022/05/12 02:42:57;;;;;;;6.13;3.25;;;17.10;99.90;;;;;;5068048;28;20021;-89
2022/05/12 02:45:23;;;;;;;6.07;3.30;;;17.20;99.90;;;;;;5046443;28;20392;-88
2022/05/12 02:47:48;;;;;;;8.13;3.30;;;17.20;99.90;;;;;;5052300;28;20028;-88
2022/05/12 02:50:15;;;;;;;6.15;3.20;;;17.30;99.90;;;;;;5050568;28;20052;-88
2022/05/12 02:52:41;;;;;;;6.10;3.03;;;17.30;99.90;;;;;;5015115;28;20056;-88
2022/05/12 02:55:07;;;;;;;5.18;3.00;;;17.50;99.90;;;;;;5020553;28;20022;-88
2022/05/12 02:57:33;;;;;;;6.30;3.03;;;17.50;99.90;;;;;;5025331;28;20028;-88
2022/05/12 02:59:59;;;;;;;4.50;2.95;;;17.60;99.90;;;;;;5025003;28;20108;-89
2022/05/12 03:02:25;;;;;;;9.55;3.20;;;17.70;99.90;;;;;;5023080;28;20115;-89
2022/05/12 03:04:50;;;;;;;4.07;3.05;;;17.70;99.90;;;;;;5018945;28;20040;-88
2022/05/12 03:07:17;;;;;;;9.05;2.92;;;17.80;99.90;;;;;;5020083;28;20030;-89
2022/05/12 03:09:43;;;;;;;4.10;2.92;;;17.80;99.90;;;;;;5026525;28;20026;-88
2022/05/12 03:12:08;;;;;;;4.63;2.75;;;17.90;99.90;;;;;;5019692;28;20036;-87
2022/05/12 03:14:34;;;;;;;5.15;3.22;;;17.90;99.90;;;;;;5020203;28;20026;-89
2022/05/12 03:17:00;;;;;;;7.80;3.30;;;17.80;99.90;;;;;;5024821;28;20459;-89
2022/05/12 03:19:25;;;;;;;7.32;3.03;;;17.80;99.90;;;;;;5022393;28;20064;-88
2022/05/12 03:21:51;;;;;;;6.95;3.25;;;17.80;99.90;;;;;;5018888;28;20029;-88
2022/05/12 03:24:18;;;;;;;6.57;3.55;;;17.80;99.90;;;;;;5035560;28;20037;-89
2022/05/12 03:26:45;;;;;;;7.45;3.05;;;17.80;99.90;;;;;;5020216;28;20450;-88
2022/05/12 03:29:10;;;;;;;6.53;2.90;;;17.80;99.90;;;;;;5029769;28;20033;-89
2022/05/12 03:31:36;;;;;;;11.88;3.03;;;17.80;99.90;;;;;;5026469;28;20505;-88
2022/05/12 03:34:02;;;;;;;5.50;2.83;;;17.80;99.90;;;;;;5029455;28;20363;-88
2022/05/12 03:36:28;;;;;;;4.88;2.50;;;17.80;99.90;;;;;;5027022;28;20036;-89
2022/05/12 03:38:53;;;;;;;6.95;2.60;;;17.90;99.90;;;;;;5030067;28;20026;-88
2022/05/12 03:41:19;;;;;;;8.05;2.50;;;17.90;99.90;;;;;;5021690;28;20034;-88
2022/05/12 03:46:32;;;;;;;9.32;3.00;;;18.10;99.90;;;;;;5038114;28;20067;-88
2022/05/12 03:48:59;;;;;;;7.88;2.72;;;18.10;99.90;;;;;;5031574;28;20087;-88
2022/05/12 03:51:25;;;;;;;7.03;2.65;;;18.20;99.90;;;;;;5059105;28;20040;-88
2022/05/12 03:53:51;;;;;;;5.10;2.45;;;18.20;99.90;;;;;;5072626;28;20354;-88
2022/05/12 03:56:17;;;;;;;6.18;2.40;;;18.30;99.90;;;;;;5064263;28;20017;-88
2022/05/12 03:58:43;;;;;;;7.18;2.45;;;18.40;99.90;;;;;;5047153;28;20473;-88
2022/05/12 04:01:09;;;;;;;6.20;2.15;;;18.40;99.90;;;;;;5062219;28;20066;-89
2022/05/12 04:03:34;;;;;;;4.50;2.40;;;18.40;99.90;;;;;;5070408;28;20043;-89
2022/05/12 04:06:01;;;;;;;8.27;2.97;;;18.40;99.90;;;;;;5063681;28;20133;-89
2022/05/12 04:08:28;;;;;;;7.30;3.13;;;18.50;99.90;;;;;;5063803;28;20021;-88
2022/05/12 04:10:53;;;;;;;4.85;2.40;;;18.50;99.90;;;;;;5046984;28;20024;-83
2022/05/12 04:13:19;;;;;;;4.05;2.80;;;18.50;99.90;;;;;;5072816;28;20346;-84
2022/05/12 04:15:44;;;;;;;6.53;2.50;;;18.50;99.90;;;;;;5063427;28;20083;-83
2022/05/12 04:18:10;;;;;;;6.75;2.70;;;18.60;99.90;;;;;;5067985;28;20029;-84
2022/05/12 04:20:36;;;;;;;6.05;3.03;;;18.60;99.90;;;;;;5061186;28;20031;-84
2022/05/12 04:23:03;;;;;;;6.10;2.20;;;18.50;99.90;;;;;;5044265;28;20024;-84
2022/05/12 04:25:29;;;;;;;8.25;2.80;;;18.60;99.90;;;;;;5063408;28;20112;-84
2022/05/12 04:27:55;;;;;;;8.32;2.80;;;18.60;99.90;;;;;;5062881;28;20154;-84
2022/05/12 04:30:24;;;;;;;6.43;3.08;;;18.70;99.90;;;;;;5064192;28;20025;-84
2022/05/12 04:32:52;;;;;;;8.98;2.40;;;18.70;99.90;;;;;;5055333;28;20035;-92
2022/05/12 04:35:19;;;;;;;6.38;2.60;;;18.80;99.90;;;;;;5060951;28;20029;-92
2022/05/12 04:38:07;;;;;;;7.30;2.85;;;18.80;99.90;;;;;;5068133;28;20488;-92
2022/05/12 04:40:35;;;;;;;6.15;2.80;;;18.80;99.90;;;;;;5066641;28;20032;-92
2022/05/12 04:43:07;;;;;;;6.20;2.40;;;18.90;99.90;;;;;;5060655;28;20044;-93
2022/05/12 04:45:43;;;;;;;7.78;2.95;;;18.90;99.90;;;;;;5067747;28;20035;-91
2022/05/12 04:48:15;;;;;;;5.55;2.30;;;18.90;99.90;;;;;;5050690;28;20025;-91
2022/05/12 04:50:44;;;;;;;5.85;2.38;;;19.10;99.90;;;;;;5064106;28;20041;-93
2022/05/12 04:53:35;;;;;;;9.02;3.00;;;19.10;99.90;;;;;;5069158;28;20013;-92
2022/05/12 04:56:05;;;;;;;8.32;2.63;;;19.10;99.90;;;;;;5042684;28;20087;-92
2022/05/12 04:58:34;;;;;;;6.38;2.33;;;19.10;99.90;;;;;;5050565;28;20108;-92
2022/05/12 05:01:45;;;;;;;7.38;2.45;;;19.10;99.90;;;;;;5053995;28;20477;-92
2022/05/12 05:04:14;;;;;;;5.93;2.45;;;19.10;99.90;;;;;;5054298;28;20041;-92
2022/05/12 05:06:46;;;;;;;5.82;2.55;;;19.10;99.90;;;;;;5083572;28;20450;-92
2022/05/12 05:09:15;;;;;;;5.57;2.55;;;19.20;99.90;;;;;;5050896;28;20108;-92
2022/05/12 05:11:44;;;;;;;4.75;2.50;;;19.20;99.90;;;;;;5075455;28;20028;-92
2022/05/12 05:14:15;;;;;;;6.85;3.00;;;19.20;99.90;;;;;;5069397;28;20529;-92
2022/05/12 05:16:43;;;;;;;6.18;2.58;;;19.20;99.90;;;;;;5065166;28;20051;-81
2022/05/12 05:19:11;;;;;;;6.13;2.65;;;19.20;99.90;;;;;;5075235;28;20031;-78
2022/05/12 05:21:37;;;;;;;6.75;2.45;;;19.30;99.90;;;;;;5075558;28;20082;-76
2022/05/12 05:24:05;;;;;;;3.67;2.45;;;19.40;99.90;;;;;;5075349;28;20028;-87
2022/05/12 05:26:33;;;;;;;6.53;2.35;;;19.50;99.90;;;;;;5056848;28;20036;-86
2022/05/12 05:29:03;;;;;;;8.27;2.63;;;19.50;99.90;;;;;;5056912;28;20035;-86
2022/05/12 05:31:29;;;;;;;5.90;2.33;;;19.60;99.90;;;;;;5075162;28;20031;-85
2022/05/12 05:33:55;;;;;;;3.67;2.20;;;19.70;99.90;;;;;;5075236;28;20111;-87
2022/05/12 05:36:20;;;;;;;3.83;2.28;;;19.90;99.90;;;;;;5075299;28;20074;-87
2022/05/12 05:38:47;;;;;;;7.30;2.30;;;19.80;99.90;;;;;;5075526;28;20028;-88
2022/05/12 05:41:15;;;;;;;7.07;2.30;;;20.00;99.90;;;;;;5075058;28;20112;-87
2022/05/12 05:43:44;;;;;;;7.78;2.42;;;20.10;99.90;;;;;;5057103;28;20020;-87
2022/05/12 05:46:17;;;;;;;5.57;2.25;;;20.20;99.90;;;;;;5075225;28;20457;-88
2022/05/12 05:48:50;;;;;;;7.15;2.42;;;20.20;99.90;;;;;;5055843;28;20519;-87
2022/05/12 05:53:59;;;;;;;5.53;2.35;;;20.30;99.90;;;;;;5074822;28;20058;-88
2022/05/12 05:56:25;;;;;;;9.85;2.60;;;20.30;99.90;;;;;;5057007;28;20028;-87
2022/05/12 05:58:54;;;;;;;7.85;2.40;;;20.30;99.90;;;;;;5074911;28;20025;-86
2022/05/12 06:01:20;;;;;;;5.85;2.40;;;20.30;99.90;;;;;;5074810;28;20426;-88
2022/05/12 06:03:46;;;;;;;6.10;2.67;;;20.20;99.90;;;;;;5056817;28;20047;-87
2022/05/12 06:06:12;;;;;;;10.15;2.45;;;20.30;99.90;;;;;;5075053;28;20025;-87
2022/05/12 06:08:38;;;;;;;8.07;2.30;;;20.30;99.90;;;;;;5074906;28;20028;-88
2022/05/12 06:11:04;;;;;;;9.90;2.25;;;20.40;99.90;;;;;;5075071;28;20401;-87
2022/05/12 06:13:34;;;;;;;5.35;2.42;;;20.30;99.90;;;;;;5075010;28;20021;-88
2022/05/12 06:16:05;;;;;;;4.80;2.10;;;20.40;99.90;;;;;;5075064;28;20031;-87
2022/05/12 06:18:37;;;;;;;5.45;2.40;;;20.40;99.90;;;;;;5074631;28;20020;-87
2022/05/12 06:21:06;;;;;;;6.25;2.50;;;20.40;99.90;;;;;;5074684;28;20027;-88
2022/05/12 06:23:35;;;;;;;3.65;2.22;;;20.50;99.90;;;;;;5056521;28;20028;-88
2022/05/12 06:26:15;;;;;;;5.47;2.50;;;20.70;99.90;;;;;;5074494;28;20020;-87
2022/05/12 06:28:47;;;;;;;8.30;2.20;;;20.70;99.90;;;;;;5074498;28;20108;-88
2022/05/12 06:31:48;;;;;;;6.80;2.30;;;20.80;99.90;;;;;;5056036;28;20036;-87
2022/05/12 06:34:05;;;;;;;5.30;2.92;;;20.80;99.90;;;;;;5070928;28;20043;-87
2022/05/12 06:36:37;;;;;;;5.40;2.20;;;20.80;99.90;;;;;;5074137;28;20029;-89
2022/05/12 06:39:06;;;;;;;8.27;2.42;;;21.00;99.90;;;;;;5074030;28;20031;-87
2022/05/12 06:41:34;;;;;;;6.78;2.38;;;21.20;99.90;;;;;;5074104;28;20035;-87
2022/05/12 06:44:07;;;;;;;13.40;3.00;;;21.30;99.90;;;;;;5055955;28;20042;-80
2022/05/12 06:46:47;;;;;;;6.82;2.40;;;21.40;99.90;;;;;;5074025;28;20028;-87
2022/05/12 06:49:17;;;;;;;7.70;2.40;;;21.30;99.90;;;;;;5056008;28;20032;-87
2022/05/12 06:51:45;;;;;;;10.43;2.75;;;21.20;99.90;;;;;;5074300;28;20044;-88
2022/05/12 06:54:13;;;;;;;6.03;2.60;;;21.00;99.90;;;;;;5073738;28;20079;-87
2022/05/12 06:56:41;;;;;;;7.18;2.70;;;21.00;99.90;;;;;;5073754;28;20099;-87
2022/05/12 06:59:07;;;;;;;6.07;2.30;;;20.90;99.90;;;;;;5056203;28;20058;-88
2022/05/12 07:01:35;;;;;;;6.65;2.53;;;21.00;99.90;;;;;;5055733;28;20021;-88
2022/05/12 07:04:00;;;;;;;9.20;2.60;;;21.00;99.90;;;;;;5073645;28;20108;-87
2022/05/12 07:06:27;;;;;;;5.85;2.88;;;21.00;99.90;;;;;;5056441;28;20127;-88
2022/05/12 07:08:53;;;;;;;7.10;2.42;;;21.10;99.90;;;;;;5073505;28;20032;-87
2022/05/12 07:11:18;;;;;;;5.63;2.60;;;21.20;99.90;;;;;;5055735;28;20058;-88
2022/05/12 07:13:44;;;;;;;10.57;2.53;;;21.40;99.90;;;;;;5056086;28;20036;-87
2022/05/12 07:16:10;;;;;;;5.75;2.75;;;21.50;99.90;;;;;;5055527;28;20017;-88
2022/05/12 07:18:36;;;;;;;9.18;2.50;;;21.60;99.90;;;;;;5073543;28;20067;-88
2022/05/12 07:26:41;;;;;;;11.93;3.63;;;21.60;99.90;;;;;;5073643;28;20043;-88
2022/05/12 07:29:14;;;;;;;5.32;2.00;;;21.70;99.90;;;;;;5073725;28;20023;-89
2022/05/12 07:31:41;;;;;;;6.35;2.40;;;21.90;99.90;;;;;;5073512;28;20025;-88
2022/05/12 07:34:08;;;;;;;5.30;2.45;;;22.10;99.90;;;;;;5055783;28;20089;-87
2022/05/12 07:36:38;;;;;;;5.65;2.67;;;22.30;99.90;;;;;;5056803;28;20025;-88
2022/05/12 07:39:05;;;;;;;5.05;2.80;;;22.20;99.90;;;;;;5074535;28;20029;-88
2022/05/12 07:41:33;;;;;;;4.53;2.20;;;22.20;99.90;;;;;;5073993;28;20020;-87
2022/05/12 07:43:59;;;;;;;4.57;2.38;;;22.40;99.90;;;;;;5074245;28;20025;-87
2022/05/12 07:46:28;;;;;;;5.18;2.30;;;22.40;99.90;;;;;;5073957;28;20020;-88
2022/05/12 07:48:54;;;;;;;10.75;2.42;;;22.40;99.90;;;;;;5075887;28;20021;-88
2022/05/12 07:51:21;;;;;;;6.22;2.28;;;22.30;99.90;;;;;;5073669;28;20052;-88
2022/05/12 07:53:48;;;;;;;5.97;2.40;;;22.30;99.90;;;;;;5056367;28;20017;-88
2022/05/12 07:56:20;;;;;;;7.25;2.60;;;22.30;99.90;;;;;;5056697;28;20059;-87
2022/05/12 07:58:46;;;;;;;7.70;2.78;;;22.40;99.90;;;;;;5055952;28;20090;-87
2022/05/12 08:01:13;;;;;;;7.82;2.38;;;22.50;99.90;;;;;;5073663;28;20094;-88
2022/05/12 08:03:39;;;;;;;9.00;2.95;;;22.50;99.90;;;;;;5054970;28;20024;-89
2022/05/12 08:06:07;;;;;;;6.85;2.28;;;22.50;99.90;;;;;;5054886;28;20024;-88
2022/05/12 08:08:33;;;;;;;8.23;2.25;;;22.50;99.90;;;;;;5055354;28;20115;-88
2022/05/12 08:10:58;;;;;;;7.07;2.72;;;22.50;99.90;;;;;;5074500;28;20108;-87
2022/05/12 08:13:25;;;;;;;7.63;2.40;;;22.50;99.90;;;;;;5077008;28;20102;-89
2022/05/12 08:15:52;;;;;;;10.40;3.03;;;22.60;99.90;;;;;;5058860;28;20021;-90
2022/05/12 08:18:22;;;;;;;7.78;2.47;;;22.70;99.90;;;;;;5058729;28;20020;-89
2022/05/12 08:20:49;;;;;;;8.65;2.53;;;22.70;99.90;;;;;;5076763;28;20473;-88
2022/05/12 08:23:15;;;;;;;9.88;2.83;;;22.70;99.90;;;;;;5058328;28;20020;-88
2022/05/12 08:25:42;;;;;;;5.65;2.50;;;22.80;99.90;;;;;;5076828;28;20399;-89
2022/05/12 08:28:09;;;;;;;4.85;2.60;;;22.70;99.90;;;;;;5076332;28;20028;-89
2022/05/12 08:30:35;;;;;;;9.40;2.58;;;22.90;99.90;;;;;;5058322;28;20448;-88
2022/05/12 08:33:00;;;;;;;6.10;2.67;;;22.90;99.90;;;;;;5076246;28;20103;-88
2022/05/12 08:35:27;;;;;;;5.82;2.42;;;22.80;99.90;;;;;;5058225;28;20031;-89
2022/05/12 08:37:53;;;;;;;6.07;2.60;;;22.80;99.90;;;;;;5058546;28;20514;-89
2022/05/12 08:40:56;;;;;;;6.80;2.40;;;23.00;99.90;;;;;;5076441;28;20024;-89
2022/05/12 08:43:28;;;;;;;9.38;2.80;;;23.00;99.90;;;;;;5076570;28;20376;-87
2022/05/12 08:46:01;;;;;;;7.68;2.90;;;23.00;99.90;;;;;;5058197;28;20108;-88
2022/05/12 08:48:27;;;;;;;11.57;2.58;;;23.10;99.90;;;;;;5062540;28;20029;-89
2022/05/12 08:50:55;;;;;;;5.88;2.47;;;23.10;99.90;;;;;;5058768;28;20102;-89
2022/05/12 08:53:26;;;;;;;6.15;2.83;;;23.20;99.90;;;;;;5058101;28;20031;-88
2022/05/12 08:55:56;;;;;;;10.25;2.80;;;23.20;99.90;;;;;;5076021;28;20544;-86
2022/05/12 08:58:30;;;;;;;7.30;2.47;;;23.20;99.90;;;;;;5075954;28;20077;-87
2022/05/12 09:01:11;;;;;;;8.67;2.47;;;23.40;99.90;;;;;;5076207;28;20016;-87
2022/05/12 09:03:45;;;;;;;12.60;2.90;;;23.40;99.90;;;;;;5076412;28;20755;-87
2022/05/12 09:06:17;;;;;;;;;;;23.40;99.90;;;;;;5077134;28;20024;-89
2022/05/12 09:09:20;;;;;;;5.90;2.70;;;23.60;99.90;;;;;;5058513;28;19901;-86
2022/05/12 09:11:57;;;;;;;10.27;3.53;;;23.70;99.90;;;;;;5076153;28;20404;-89
2022/05/12 09:14:32;;;;;;;6.70;2.60;;;23.90;99.90;;;;;;5058013;28;20132;-87
2022/05/12 09:16:58;;;;;;;;;;;24.00;99.90;;;;;;5058348;28;20051;-87
2022/05/12 09:19:26;;;;;;;11.45;2.90;;;24.10;99.90;;;;;;5058585;28;19912;-87
2022/05/12 09:21:51;;;;;;;14.23;3.60;;;24.30;99.90;;;;;;5076110;28;20032;-89
2022/05/12 09:24:17;;;;;;;10.10;3.25;;;24.50;99.90;;;;;;5057962;28;20135;-88
2022/05/12 09:27:07;;;;;;;9.82;2.72;;;24.70;99.90;;;;;;5076051;28;20031;-88
2022/05/12 09:29:46;;;;;;;15.38;3.55;;;24.80;99.90;;;;;;5075431;28;20088;-88
2022/05/12 09:32:11;;;;;;;6.95;2.97;;;25.10;99.30;;;;;;5075665;28;20031;-87
2022/05/12 09:34:43;;;;;;;7.70;3.20;;;25.50;98.40;;;;;;5057750;28;20028;-88
2022/05/12 09:37:12;;;;;;;7.30;3.63;;;25.70;97.30;;;;;;5075465;28;20028;-89
2022/05/12 09:39:41;;;;;;;9.65;3.10;;;26.10;97.50;;;;;;5057235;28;20028;-88
2022/05/12 09:42:16;;;;;;;9.65;2.90;;;25.90;96.50;;;;;;5057419;28;20418;-87
2022/05/12 09:44:56;;;;;;;7.82;3.05;;;25.70;96.50;;;;;;5057118;28;20032;-88
2022/05/12 09:47:22;;;;;;;13.10;3.53;;;25.40;97.20;;;;;;5075392;28;20035;-88
2022/05/12 09:49:48;;;;;;;11.68;3.28;;;25.40;96.80;;;;;;5056954;28;20021;-88
2022/05/12 09:52:26;;;;;;;6.25;3.45;;;25.30;97.60;;;;;;5074872;28;20446;-87
2022/05/12 09:55:15;;;;;;;10.60;2.90;;;25.30;98.40;;;;;;5074986;28;20032;-88
2022/05/12 09:57:56;;;;;;;8.23;3.10;;;25.50;97.50;;;;;;5074371;28;20033;-87
2022/05/12 10:00:24;;;;;;;7.75;2.55;;;25.60;97.30;;;;;;5075064;28;20017;-82
2022/05/12 10:09:22;;;;;;;5.53;2.83;;;25.50;98.00;;;;;;5070760;28;20083;-80
2022/05/12 10:12:13;;;;;;;10.80;4.03;;;25.60;98.10;;;;;;5074393;28;20481;-79
2022/05/12 10:15:03;;;;;;;7.35;3.30;;;25.90;96.70;;;;;;5074200;28;20039;-79
2022/05/12 10:17:39;;;;;;;6.82;2.80;;;26.00;96.40;;;;;;5074191;28;20517;-79
2022/05/12 10:20:26;;;;;;;7.22;3.00;;;26.10;96.20;;;;;;5074137;28;20099;-88
2022/05/12 10:22:54;;;;;;;6.65;2.90;;;26.20;96.50;;;;;;5074271;28;20048;-91
2022/05/12 10:25:20;;;;;;;5.82;2.85;;;26.30;95.70;;;;;;5074307;28;20389;-87
2022/05/12 10:28:05;;;;;;;8.20;2.60;;;26.70;94.50;;;;;;5056468;28;20036;-89
2022/05/12 10:30:45;;;;;;;;;;;26.60;92.60;;;;;;5075015;28;20103;-87
2022/05/12 10:33:23;;;;;;;11.63;2.80;;;26.60;93.30;;;;;;5073710;28;20073;-88
2022/05/12 10:36:07;;;;;;;5.25;2.53;;;26.70;93.20;;;;;;5073997;28;20026;-87
2022/05/12 10:38:42;;;;;;;6.07;2.75;;;26.70;93.50;;;;;;5073858;28;20032;-86
2022/05/12 10:41:21;;;;;;;;;;;26.90;92.30;;;;;;5074813;28;20373;-87
2022/05/12 10:43:59;;;;;;;5.28;2.60;;;26.80;92.60;;;;;;5056070;28;19912;-89
2022/05/12 10:46:43;;;;;;;12.60;3.33;;;26.90;91.90;;;;;;5056319;28;20076;-88
2022/05/12 10:49:21;;;;;;;6.93;3.00;;;27.00;93.50;;;;;;5056002;28;20020;-90
2022/05/12 10:51:59;;;;;;;8.20;2.88;;;27.30;92.80;;;;;;5055760;28;20055;-89
2022/05/12 10:54:43;;;;;;;5.93;2.88;;;27.80;92.00;;;;;;5056269;28;20077;-88
2022/05/12 10:57:35;;;;;;;5.68;2.60;;;28.00;91.50;;;;;;5074030;28;20519;-89
2022/05/12 11:00:12;;;;;;;5.82;2.70;;;28.00;91.20;;;;;;5073226;28;20059;-89
2022/05/12 11:02:42;;;;;;;6.25;2.90;;;28.00;90.90;;;;;;5072362;28;20031;-87
2022/05/12 11:05:10;;;;;;;10.70;3.28;;;27.90;91.20;;;;;;5055769;28;20119;-88
2022/05/12 11:07:49;;;;;;;8.63;3.08;;;27.90;90.20;;;;;;5055969;28;20217;-88
2022/05/12 11:10:41;;;;;;;13.02;3.08;;;28.00;90.00;;;;;;5073795;28;20385;-88
2022/05/12 11:13:17;;;;;;;5.13;2.53;;;28.10;89.20;;;;;;5073685;28;20021;-87
2022/05/12 11:16:18;;;;;;;11.10;3.38;;;28.10;89.50;;;;;;5073376;28;20056;-88
2022/05/12 11:19:06;;;;;;;7.40;3.20;;;28.10;89.90;;;;;;5072207;28;20055;-86
2022/05/12 11:21:46;;;;;;;6.88;2.90;;;28.00;88.20;;;;;;5057176;28;20479;-89
2022/05/12 11:24:24;;;;;;;5.80;2.80;;;28.00;89.00;;;;;;5055471;28;20445;-88
2022/05/12 11:27:16;;;;;;;9.20;2.95;;;28.00;90.30;;;;;;5055394;28;20025;-89
2022/05/12 11:30:01;;;;;;;7.30;2.92;;;28.30;88.60;;;;;;5074127;28;20111;-88
2022/05/12 11:32:43;;;;;;;6.65;2.80;;;28.50;86.00;;;;;;5056489;28;20410;-88
2022/05/12 11:35:15;;;;;;;8.55;2.85;;;28.60;86.10;;;;;;5073805;28;20028;-90
2022/05/12 11:37:41;;;;;;;7.75;3.28;;;28.80;88.90;;;;;;5072497;28;20047;-88
2022/05/12 11:40:09;;;;;;;9.07;3.30;;;29.00;86.20;;;;;;5055844;28;20028;-88
2022/05/12 11:45:51;;;;;;;5.75;2.75;;;29.10;82.90;;;;;;5074473;28;20058;-89
2022/05/12 11:48:30;;;;;;;9.68;3.30;;;29.10;84.60;;;;;;5076915;28;20031;-89
2022/05/12 11:51:21;;;;;;;9.40;3.47;;;29.20;85.40;;;;;;5060162;28;20074;-90
2022/05/12 11:53:56;;;;;;;8.18;2.90;;;29.00;83.30;;;;;;5060526;28;20024;-88
2022/05/12 11:56:40;;;;;;;8.48;3.22;;;29.30;85.00;;;;;;5060670;28;20028;-87
2022/05/12 11:59:31;;;;;;;6.43;2.95;;;29.60;83.40;;;;;;5077859;28;20058;-89
2022/05/12 12:01:59;;;;;;;5.47;2.55;;;29.90;83.00;;;;;;5047355;28;20111;-89
2022/05/12 12:04:47;;;;;;;6.57;3.00;;;30.20;82.00;;;;;;5059472;28;20427;-89
2022/05/12 12:07:35;;;;;;;6.03;3.10;;;30.10;79.60;;;;;;5077406;28;20059;-89
2022/05/12 12:10:09;;;;;;;5.65;2.78;;;30.10;80.30;;;;;;5077222;28;20085;-86
2022/05/12 12:12:40;;;;;;;5.80;2.83;;;30.40;80.40;;;;;;5077084;28;20504;-88
2022/05/12 12:15:20;;;;;;;7.60;2.90;;;30.30;78.10;;;;;;5059544;28;20127;-89
2022/05/12 12:17:45;;;;;;;6.25;2.80;;;30.40;80.60;;;;;;5058787;28;20020;-88
2022/05/12 12:20:31;;;;;;;5.55;3.20;;;30.50;78.70;;;;;;5058554;28;20098;-87
2022/05/12 12:22:57;;;;;;;4.95;2.60;;;30.30;78.50;;;;;;5058550;28;20031;-88
2022/05/12 12:25:41;;;;;;;9.65;3.10;;;30.20;81.00;;;;;;5076399;28;20029;-85
2022/05/12 12:28:52;;;;;;;9.23;3.20;;;30.20;77.30;;;;;;5077277;28;20055;-89
2022/05/12 12:31:40;;;;;;;6.80;3.00;;;30.30;79.00;;;;;;5058725;28;20025;-89
2022/05/12 12:34:31;;;;;;;7.45;3.15;;;31.10;77.70;;;;;;5059037;28;20496;-88
2022/05/12 12:37:00;;;;;;;5.57;3.35;;;31.40;75.10;;;;;;5059058;28;20437;-87
2022/05/12 12:39:34;;;;;;;5.60;2.92;;;31.30;75.80;;;;;;5058367;28;20097;-88
2022/05/12 12:42:18;;;;;;;10.45;3.00;;;31.10;74.70;;;;;;5076940;28;20081;-88
2022/05/12 12:44:50;;;;;;;7.38;2.80;;;31.30;75.60;;;;;;5058640;28;20032;-89
2022/05/12 12:47:43;;;;;;;6.55;3.20;;;31.40;72.70;;;;;;5075509;28;20032;-88
2022/05/12 12:50:26;;;;;;;6.65;2.75;;;30.80;75.00;;;;;;5050598;28;20068;-87
2022/05/12 12:52:56;;;;;;;6.80;3.03;;;30.50;77.10;;;;;;5035876;28;20064;-89
2022/05/12 12:58:34;;;;;;;7.07;3.05;;;30.50;76.60;;;;;;5036422;28;20078;-90
2022/05/12 13:01:03;;;;;;;7.65;2.92;;;31.00;74.80;;;;;;5035036;28;20032;-87
2022/05/12 13:03:34;;;;;;;8.00;2.85;;;30.80;74.00;;;;;;5034824;28;20021;-89
2022/05/12 13:06:14;;;;;;;8.27;3.30;;;30.30;74.20;;;;;;5034828;28;20056;-89
2022/05/12 13:08:41;;;;;;;11.10;3.08;;;29.60;76.00;;;;;;5034849;28;20056;-88
2022/05/12 13:11:07;;;;;;;5.22;3.05;;;29.00;78.00;;;;;;5034457;28;20373;-89
2022/05/12 13:13:50;;;;;;;6.75;2.90;;;28.90;81.30;;;;;;5036133;28;20037;-89
2022/05/12 13:16:17;;;;;;;3.88;3.00;;;29.00;79.30;;;;;;5034502;28;20107;-88
2022/05/12 13:18:50;;;;;;;7.15;3.40;;;28.90;79.60;;;;;;5036604;28;20026;-89
2022/05/12 13:21:34;;;;;;;10.27;2.95;;;28.70;80.80;;;;;;5034611;28;20021;-89
2022/05/12 13:24:05;;;;;;;7.50;3.13;;;28.70;79.30;;;;;;5035107;28;20028;-88
2022/05/12 13:26:31;;;;;;;7.13;3.15;;;29.10;78.70;;;;;;5036496;28;20024;-89
2022/05/12 13:28:59;;;;;;;8.25;2.90;;;29.10;78.50;;;;;;5034961;28;20028;-90
2022/05/12 13:31:46;;;;;;;7.57;3.08;;;29.40;77.60;;;;;;5036189;28;20017;-89